Time;durP1;ratioP1;P1;durP2;ratioP2;P2;SDS_P1;SDS_P2;PMS_P1;PMS_P2;Temp;Humidity;BMP_temperature;BMP_pressure;BME280_temperature;BME280_humidity;BME280_pressure;Samples;Min_cycle;Max_cycle;Signal;HPM_P1;HPM_P2
2023/04/14 00:00:32;;;;;;;1.10;0.60;;;;;;;22.93;37.47;100791.03;5074364;27;97538;-79
2023/04/14 00:03:00;;;;;;;1.35;0.70;;;;;;;22.93;37.39;100787.47;5084021;27;97556;-79
2023/04/14 00:05:30;;;;;;;0.95;0.55;;;;;;;22.93;37.72;100781.97;5075757;27;96999;-79
2023/04/14 00:07:57;;;;;;;1.15;0.70;;;;;;;22.93;37.81;100781.97;5061578;27;97504;-79
2023/04/14 00:10:25;;;;;;;1.02;0.80;;;;;;;22.93;37.60;100787.47;5065864;27;97550;-78
2023/04/14 00:12:52;;;;;;;1.40;0.60;;;;;;;22.93;37.41;100780.09;5064373;27;96933;-78
2023/04/14 00:15:18;;;;;;;1.92;0.65;;;;;;;22.92;37.85;100780.28;5070479;27;97667;-78
2023/04/14 00:17:45;;;;;;;1.40;0.73;;;;;;;22.93;37.75;100779.25;5071963;27;97457;-79
2023/04/14 00:20:11;;;;;;;1.42;0.80;;;;;;;22.93;37.77;100781.97;5069738;27;97160;-78
2023/04/14 00:22:38;;;;;;;1.10;0.60;;;;;;;22.93;37.38;100779.25;5067161;27;97155;-78
2023/04/14 00:25:05;;;;;;;1.75;0.60;;;;;;;22.92;37.54;100783.03;5065592;27;98281;-78
2023/04/14 00:27:32;;;;;;;0.90;0.50;;;;;;;22.91;37.77;100784.91;5071461;27;99046;-78
2023/04/14 00:29:58;;;;;;;1.10;0.73;;;;;;;22.91;37.53;100778.59;5066230;27;97742;-79
2023/04/14 00:32:25;;;;;;;1.20;0.70;;;;;;;22.91;37.58;100784.91;5069404;27;97311;-78
2023/04/14 00:34:51;;;;;;;0.98;0.70;;;;;;;22.91;38.02;100773.09;5062129;27;100546;-79
2023/04/14 00:37:18;;;;;;;2.20;0.90;;;;;;;22.90;37.66;100777.72;5071052;27;97687;-79
2023/04/14 00:39:44;;;;;;;1.33;0.50;;;;;;;22.90;37.60;100785.94;5075586;27;97314;-78
2023/04/14 00:42:11;;;;;;;1.10;0.85;;;;;;;22.91;37.72;100789.53;5072112;27;96715;-78
2023/04/14 00:44:37;;;;;;;1.95;0.70;;;;;;;22.90;37.47;100787.84;5067530;27;97591;-79
2023/04/14 00:47:04;;;;;;;1.23;0.60;;;;;;;22.90;37.75;100793.31;5069165;27;97597;-78
2023/04/14 00:49:31;;;;;;;1.58;0.75;;;;;;;22.90;37.60;100799.66;5068489;27;96813;-79
2023/04/14 00:51:58;;;;;;;1.20;0.63;;;;;;;22.90;37.33;100798.78;5070934;27;97595;-78
2023/04/14 00:54:26;;;;;;;1.02;0.60;;;;;;;22.89;37.54;100800.69;5076943;27;97516;-79
2023/04/14 00:56:54;;;;;;;1.13;0.70;;;;;;;22.90;37.64;100807.84;5074486;27;101249;-78
2023/04/14 00:59:21;;;;;;;1.70;0.60;;;;;;;22.89;37.71;100808.91;5078310;27;96989;-78
2023/04/14 01:01:47;;;;;;;1.05;0.57;;;;;;;22.89;37.72;100808.06;5064848;27;96979;-78
2023/04/14 01:04:18;;;;;;;1.77;0.77;;;;;;;22.90;37.78;100812.50;5074488;27;97981;-78
2023/04/14 01:06:45;;;;;;;1.58;0.70;;;;;;;22.88;37.50;100812.69;5082919;27;97323;-79
2023/04/14 01:09:14;;;;;;;0.88;0.63;;;;;;;22.88;37.73;100811.81;5079558;27;97333;-78
2023/04/14 01:11:54;;;;;;;1.38;0.75;;;;;;;22.90;37.64;100809.75;5069720;27;97045;-79
2023/04/14 01:14:30;;;;;;;0.80;0.60;;;;;;;22.88;37.71;100811.81;5075768;27;96956;-79
2023/04/14 01:17:04;;;;;;;1.15;0.60;;;;;;;22.86;37.67;100820.22;5079986;27;97133;-79
2023/04/14 01:20:00;;;;;;;1.05;0.68;;;;;;;22.86;37.67;100813.91;5060622;27;97127;-78
2023/04/14 01:22:34;;;;;;;1.52;0.70;;;;;;;22.86;37.68;100808.44;5032460;27;96986;-79
2023/04/14 01:25:08;;;;;;;1.40;0.60;;;;;;;22.87;37.57;100815.59;5059454;27;101338;-78
2023/04/14 01:27:42;;;;;;;1.27;0.50;;;;;;;22.86;37.79;100814.75;5065843;27;97732;-78
2023/04/14 01:30:20;;;;;;;1.30;0.80;;;;;;;22.85;37.75;100812.22;5075494;27;96789;-81
2023/04/14 01:32:51;;;;;;;2.40;0.70;;;;;;;22.85;37.71;100812.22;5076151;27;97777;-78
2023/04/14 01:35:25;;;;;;;0.73;0.50;;;;;;;22.85;37.85;100812.22;5075249;27;99686;-78
2023/04/14 01:37:56;;;;;;;2.75;0.70;;;;;;;22.85;37.43;100812.22;5068815;27;96716;-78
2023/04/14 01:40:26;;;;;;;1.52;0.98;;;;;;;22.83;37.58;100813.25;5067261;27;96938;-80
2023/04/14 01:43:04;;;;;;;1.15;0.60;;;;;;;22.84;37.43;100816.84;5066439;27;98272;-79
2023/04/14 01:45:40;;;;;;;1.63;0.80;;;;;;;22.83;37.49;100821.47;5067097;27;98309;-78
2023/04/14 01:48:08;;;;;;;1.23;0.57;;;;;;;22.83;37.71;100823.34;5066548;27;97751;-80
2023/04/14 01:50:36;;;;;;;1.45;0.70;;;;;;;22.83;37.38;100815.97;5063217;27;96827;-79
2023/04/14 01:53:05;;;;;;;0.60;0.55;;;;;;;22.84;37.42;100819.56;5064683;27;96718;-78
2023/04/14 01:55:34;;;;;;;0.90;0.65;;;;;;;22.83;37.85;100815.97;5070189;27;100992;-79
2023/04/14 01:58:04;;;;;;;1.00;0.68;;;;;;;22.83;37.63;100824.19;5078757;27;100519;-79
2023/04/14 02:00:33;;;;;;;1.73;0.90;;;;;;;22.83;37.49;100817.88;5067839;27;96989;-79
2023/04/14 02:03:02;;;;;;;1.35;0.73;;;;;;;22.82;37.70;100827.97;5066285;27;96852;-79
2023/04/14 02:05:31;;;;;;;1.20;0.70;;;;;;;22.82;37.67;100825.25;5066859;27;97648;-80
2023/04/14 02:07:59;;;;;;;1.65;0.65;;;;;;;22.82;37.70;100827.13;5059524;27;97420;-78
2023/04/14 02:10:27;;;;;;;1.20;0.70;;;;;;;22.82;37.78;100830.72;5070310;27;98370;-78
2023/04/14 02:12:57;;;;;;;1.00;0.60;;;;;;;22.83;37.80;100831.56;5069536;27;96734;-78
2023/04/14 02:15:25;;;;;;;0.70;0.50;;;;;;;22.82;37.45;100835.34;5064388;27;99340;-78
2023/04/14 02:17:51;;;;;;;1.27;0.52;;;;;;;22.82;37.31;100838.06;5062586;27;97482;-79
2023/04/14 02:20:20;;;;;;;1.77;0.68;;;;;;;22.82;37.42;100846.28;5051385;27;96848;-80
2023/04/14 02:22:47;;;;;;;1.52;0.73;;;;;;;22.80;37.51;100849.22;5067837;27;97023;-79
2023/04/14 02:25:13;;;;;;;1.00;0.80;;;;;;;22.80;37.41;100846.47;5077066;27;97672;-79
2023/04/14 02:27:48;;;;;;;1.23;0.52;;;;;;;22.81;37.66;100850.06;5069433;27;97203;-79
2023/04/14 02:30:23;;;;;;;3.10;0.65;;;;;;;22.79;37.62;100852.97;5086268;27;97117;-78
2023/04/14 02:32:56;;;;;;;1.15;0.70;;;;;;;22.80;37.67;100856.59;5054303;27;96885;-78
2023/04/14 02:35:26;;;;;;;1.05;0.73;;;;;;;22.80;37.50;100857.44;5065125;27;97234;-78
2023/04/14 02:37:59;;;;;;;1.63;0.68;;;;;;;22.80;37.65;100862.06;5053292;27;99245;-77
2023/04/14 02:40:31;;;;;;;1.10;0.68;;;;;;;22.79;37.42;100858.44;5070042;27;96919;-78
2023/04/14 02:43:06;;;;;;;1.00;0.50;;;;;;;22.78;37.35;100862.22;5071625;27;97025;-78
2023/04/14 02:45:37;;;;;;;1.10;0.60;;;;;;;22.79;37.46;100857.59;5055236;27;100622;-79
2023/04/14 02:48:10;;;;;;;2.85;1.15;;;;;;;22.78;37.34;100859.47;5073839;27;97456;-78
2023/04/14 02:50:41;;;;;;;0.95;0.60;;;;;;;22.78;37.42;100859.47;5068878;27;98087;-78
2023/04/14 02:53:17;;;;;;;0.80;0.57;;;;;;;22.77;37.70;100866.00;5058488;27;97376;-78
2023/04/14 02:55:46;;;;;;;1.10;0.75;;;;;;;22.77;37.75;100860.53;5057321;27;97619;-79
2023/04/14 02:58:15;;;;;;;1.55;0.60;;;;;;;22.77;37.53;100860.53;5056547;27;100321;-78
2023/04/14 03:00:42;;;;;;;1.63;0.70;;;;;;;22.77;37.34;100862.41;5064066;27;96748;-78
2023/04/14 03:03:11;;;;;;;1.02;0.70;;;;;;;22.76;37.48;100861.56;5074744;27;97013;-78
2023/04/14 03:05:40;;;;;;;1.67;0.52;;;;;;;22.76;37.42;100864.28;5060486;27;96873;-80
2023/04/14 03:08:10;;;;;;;1.08;0.57;;;;;;;22.76;37.86;100869.78;5073677;27;97014;-79
2023/04/14 03:10:43;;;;;;;0.82;0.60;;;;;;;22.74;37.48;100860.91;5065575;27;97017;-79
2023/04/14 03:13:12;;;;;;;0.90;0.60;;;;;;;22.74;37.61;100862.78;5071505;27;96683;-77
2023/04/14 03:15:40;;;;;;;0.93;0.60;;;;;;;22.73;37.66;100863.81;5076896;27;99479;-78
2023/04/14 03:18:08;;;;;;;1.00;0.70;;;;;;;22.72;37.39;100857.50;5053846;27;98570;-79
2023/04/14 03:20:35;;;;;;;0.82;0.57;;;;;;;22.72;37.72;100849.28;5071010;27;96920;-77
2023/04/14 03:23:04;;;;;;;1.15;0.70;;;;;;;22.72;37.60;100851.16;5071749;27;96760;-78
2023/04/14 03:25:38;;;;;;;1.13;0.70;;;;;;;22.71;37.25;100847.59;5073493;27;100039;-79
2023/04/14 03:28:14;;;;;;;1.23;0.80;;;;;;;22.72;37.37;100856.66;5077593;27;99402;-78
2023/04/14 03:30:48;;;;;;;1.23;0.70;;;;;;;22.71;37.51;100858.53;5056703;27;96815;-79
2023/04/14 03:33:19;;;;;;;1.20;0.63;;;;;;;22.71;37.80;100860.41;5068810;27;97373;-79
2023/04/14 03:35:47;;;;;;;0.88;0.50;;;;;;;22.71;37.62;100861.28;5077502;27;96918;-78
2023/04/14 03:38:15;;;;;;;0.88;0.60;;;;;;;22.71;37.67;100860.41;5081772;27;98868;-79
2023/04/14 03:40:46;;;;;;;0.68;0.50;;;;;;;22.71;37.75;100864.00;5066102;27;96806;-79
2023/04/14 03:43:21;;;;;;;;;;;;;;;22.66;37.54;100863.72;5079825;27;96830;-79
2023/04/14 03:45:53;;;;;;;0.75;0.52;;;;;;;22.66;37.53;100866.47;5068690;27;101357;-78
2023/04/14 03:48:25;;;;;;;1.20;0.50;;;;;;;22.67;37.63;100859.94;5066528;27;97721;-79
2023/04/14 03:50:54;;;;;;;0.65;0.50;;;;;;;22.67;37.54;100859.94;5071632;27;96887;-79
2023/04/14 03:53:20;;;;;;;0.70;0.50;;;;;;;22.68;37.90;100867.13;5060837;27;97044;-79
2023/04/14 03:55:50;;;;;;;1.48;0.50;;;;;;;22.69;37.77;100867.97;5062832;27;100958;-79
2023/04/14 03:58:17;;;;;;;0.85;0.70;;;;;;;22.68;37.38;100867.13;5071358;27;97824;-79
2023/04/14 04:00:46;;;;;;;1.17;0.47;;;;;;;22.68;37.55;100867.13;5089577;27;96986;-78
2023/04/14 04:03:14;;;;;;;1.05;0.50;;;;;;;22.69;37.65;100873.44;5071638;27;97040;-79
2023/04/14 04:05:42;;;;;;;1.92;0.60;;;;;;;22.68;37.40;100872.59;5081374;27;99235;-78
2023/04/14 04:08:10;;;;;;;0.98;0.55;;;;;;;22.68;37.70;100875.34;5077515;27;100574;-78
2023/04/14 04:10:37;;;;;;;1.38;0.60;;;;;;;22.68;37.72;100874.47;5052087;27;96950;-78
2023/04/14 04:13:18;;;;;;;0.80;0.43;;;;;;;22.69;37.33;100878.91;5065268;27;96659;-79
2023/04/14 04:15:48;;;;;;;0.90;0.57;;;;;;;22.68;37.70;100886.28;5075520;27;100633;-79
2023/04/14 04:18:17;;;;;;;0.98;0.68;;;;;;;22.68;37.39;100886.28;5073510;27;99268;-79
2023/04/14 04:20:45;;;;;;;0.88;0.60;;;;;;;22.69;37.69;100882.50;5066621;27;97588;-79
2023/04/14 04:23:15;;;;;;;1.88;0.60;;;;;;;22.69;37.68;100884.41;5074639;27;97576;-79
2023/04/14 04:25:42;;;;;;;0.77;0.57;;;;;;;22.67;37.44;100879.09;5075239;27;100635;-78
2023/04/14 04:28:17;;;;;;;;;;;;;;;22.64;37.55;100879.47;5084351;27;98636;-79
2023/04/14 04:30:45;;;;;;;1.67;0.70;;;;;;;22.64;37.30;100870.41;5058443;27;96701;-79
2023/04/14 04:33:14;;;;;;;0.80;0.70;;;;;;;22.65;37.73;100872.97;5065695;27;96952;-78
2023/04/14 04:35:41;;;;;;;1.00;0.70;;;;;;;22.66;37.41;100882.03;5065817;27;99616;-79
2023/04/14 04:38:10;;;;;;;1.05;0.57;;;;;;;22.67;37.49;100881.00;5071434;27;98706;-79
2023/04/14 04:40:40;;;;;;;0.63;0.52;;;;;;;22.66;37.63;100879.28;5062109;27;97784;-79
2023/04/14 04:43:17;;;;;;;1.33;0.75;;;;;;;22.66;37.45;100879.28;5083722;27;96893;-79
2023/04/14 04:46:10;;;;;;;1.38;0.70;;;;;;;22.67;37.38;100876.38;5047786;27;100234;-80
2023/04/14 04:48:37;;;;;;;0.57;0.43;;;;;;;22.65;37.42;100878.44;5065915;27;100097;-79
2023/04/14 04:51:04;;;;;;;1.23;0.60;;;;;;;22.66;37.39;100874.66;5050595;27;96931;-79
2023/04/14 04:53:30;;;;;;;1.63;0.63;;;;;;;22.66;37.66;100877.41;5073477;27;97050;-79
2023/04/14 04:55:57;;;;;;;1.95;0.85;;;;;;;22.66;37.16;100877.41;5068673;27;97490;-78
2023/04/14 04:58:24;;;;;;;0.68;0.50;;;;;;;22.66;37.48;100880.16;5074772;27;98069;-79
2023/04/14 05:00:50;;;;;;;0.70;0.60;;;;;;;22.66;37.37;100874.66;5068962;27;98755;-78
2023/04/14 05:03:17;;;;;;;1.23;0.65;;;;;;;22.65;37.83;100878.44;5068953;27;98821;-79
2023/04/14 05:05:43;;;;;;;1.05;0.70;;;;;;;22.67;37.58;100881.00;5068257;27;96879;-79
2023/04/14 05:08:10;;;;;;;0.90;0.50;;;;;;;22.65;37.85;100878.44;5069308;27;96881;-79
2023/04/14 05:10:40;;;;;;;1.55;0.63;;;;;;;22.66;37.36;100876.56;5065080;27;96798;-79
2023/04/14 05:13:06;;;;;;;0.80;0.70;;;;;;;22.65;37.55;100889.41;5075493;27;97009;-79
2023/04/14 05:15:33;;;;;;;1.30;0.70;;;;;;;22.66;37.76;100885.63;5068683;27;97656;-79
2023/04/14 05:18:00;;;;;;;1.17;0.60;;;;;;;22.65;37.57;100885.81;5073195;27;97412;-78
2023/04/14 05:20:27;;;;;;;0.80;0.60;;;;;;;22.66;37.75;100882.03;5072612;27;96954;-78
2023/04/14 05:22:55;;;;;;;1.23;0.70;;;;;;;22.66;37.46;100876.56;5064131;27;97908;-79
2023/04/14 05:25:21;;;;;;;1.20;0.68;;;;;;;22.66;37.40;100880.16;5079200;27;96939;-79
2023/04/14 05:27:48;;;;;;;2.13;0.68;;;;;;;22.67;37.38;100881.00;5068063;27;97480;-79
2023/04/14 05:30:14;;;;;;;0.85;0.60;;;;;;;22.66;37.52;100879.28;5071760;27;97037;-79
2023/04/14 05:32:41;;;;;;;2.47;0.80;;;;;;;22.66;37.57;100885.63;5063658;27;96817;-79
2023/04/14 05:35:07;;;;;;;1.70;0.63;;;;;;;22.66;37.52;100885.63;5065438;27;97903;-78
2023/04/14 05:37:34;;;;;;;0.80;0.60;;;;;;;22.67;37.43;100886.47;5067738;27;98801;-79
2023/04/14 05:40:02;;;;;;;0.77;0.60;;;;;;;22.67;37.43;100890.06;5067565;27;97301;-78
2023/04/14 05:42:29;;;;;;;1.35;0.70;;;;;;;22.67;37.26;100887.31;5066860;27;98046;-79
2023/04/14 05:44:55;;;;;;;1.83;0.70;;;;;;;22.66;36.96;100896.56;5065625;27;97640;-78
2023/04/14 05:47:22;;;;;;;0.88;0.55;;;;;;;22.67;37.38;100900.16;5062987;27;99060;-78
2023/04/14 05:49:48;;;;;;;1.10;0.50;;;;;;;22.66;37.34;100898.47;5068657;27;97722;-78
2023/04/14 05:52:15;;;;;;;0.80;0.50;;;;;;;22.67;37.51;100909.22;5067522;27;96702;-79
2023/04/14 05:54:41;;;;;;;1.38;0.68;;;;;;;22.66;37.41;100904.78;5069682;27;96883;-79
2023/04/14 05:57:08;;;;;;;1.15;0.70;;;;;;;22.67;37.16;100909.22;5064160;27;97364;-78
2023/04/14 05:59:35;;;;;;;1.85;0.70;;;;;;;22.67;37.62;100902.91;5066845;27;96889;-78
2023/04/14 06:02:05;;;;;;;1.20;0.60;;;;;;;22.67;37.35;100908.38;5067171;27;98685;-80
2023/04/14 06:04:32;;;;;;;0.90;0.50;;;;;;;22.66;37.63;100907.53;5071315;27;99758;-79
2023/04/14 06:07:00;;;;;;;1.50;0.75;;;;;;;22.67;37.69;100902.91;5079335;27;97445;-80
2023/04/14 06:09:27;;;;;;;1.15;0.80;;;;;;;22.67;37.20;100892.78;5077383;27;97144;-81
2023/04/14 06:11:55;;;;;;;0.90;0.50;;;;;;;22.67;37.25;100890.06;5073233;27;97513;-79
2023/04/14 06:14:21;;;;;;;1.65;0.70;;;;;;;22.67;37.46;100890.06;5084629;27;99564;-78
2023/04/14 06:16:49;;;;;;;0.80;0.65;;;;;;;22.68;37.49;100893.66;5070401;27;98740;-81
2023/04/14 06:19:17;;;;;;;0.90;0.60;;;;;;;22.67;37.41;100890.06;5073142;27;97222;-80
2023/04/14 06:21:44;;;;;;;1.90;0.80;;;;;;;22.68;37.45;100882.69;5081809;27;99368;-79
2023/04/14 06:24:11;;;;;;;1.23;0.60;;;;;;;22.68;37.23;100885.44;5072094;27;99480;-79
2023/04/14 06:26:37;;;;;;;0.93;0.55;;;;;;;22.67;37.51;100887.31;5069830;27;97041;-76
2023/04/14 06:29:06;;;;;;;0.90;0.50;;;;;;;22.68;37.33;100882.69;5061807;27;96758;-77
2023/04/14 06:31:33;;;;;;;0.65;0.50;;;;;;;22.68;37.50;100880.81;5055943;27;96884;-77
2023/04/14 06:34:00;;;;;;;0.80;0.52;;;;;;;22.67;37.32;100876.38;5067856;27;97515;-77
2023/04/14 06:36:27;;;;;;;0.90;0.65;;;;;;;22.69;37.57;100876.19;5069541;27;98182;-77
2023/04/14 06:38:55;;;;;;;1.42;0.60;;;;;;;22.69;37.28;100885.25;5063541;27;96805;-77
2023/04/14 06:41:22;;;;;;;1.20;0.80;;;;;;;22.69;37.55;100884.41;5072085;27;97498;-76
2023/04/14 06:43:48;;;;;;;0.98;0.50;;;;;;;22.69;37.18;100876.19;5057289;27;96873;-77
2023/04/14 06:46:16;;;;;;;0.90;0.60;;;;;;;22.69;37.39;100879.78;5058727;27;97623;-77
2023/04/14 06:48:42;;;;;;;2.05;0.85;;;;;;;22.68;37.55;100872.59;5056854;27;97767;-77
2023/04/14 06:51:11;;;;;;;1.00;0.60;;;;;;;22.69;37.37;100879.78;5062347;27;99419;-77
2023/04/14 06:53:37;;;;;;;1.63;0.63;;;;;;;22.70;37.14;100889.69;5062024;27;97719;-77
2023/04/14 06:56:05;;;;;;;0.85;0.60;;;;;;;22.69;37.22;100885.25;5059573;27;97426;-78
2023/04/14 06:58:32;;;;;;;1.70;0.80;;;;;;;22.69;37.46;100882.50;5062206;27;97150;-77
2023/04/14 07:01:01;;;;;;;2.28;0.80;;;;;;;22.71;37.29;100874.09;5059030;27;98276;-77
2023/04/14 07:03:29;;;;;;;1.73;0.70;;;;;;;22.70;37.24;100875.16;5068092;27;99811;-77
2023/04/14 07:06:10;;;;;;;1.20;0.70;;;;;;;22.70;37.38;100865.03;5061789;27;97849;-78
2023/04/14 07:08:37;;;;;;;1.33;0.70;;;;;;;22.70;37.50;100867.78;5062872;27;98330;-78
2023/04/14 07:11:07;;;;;;;0.98;0.60;;;;;;;22.71;37.27;100866.75;5064771;27;97571;-77
2023/04/14 07:13:35;;;;;;;1.08;0.60;;;;;;;22.71;37.44;100866.75;5064791;27;99545;-78
2023/04/14 07:16:02;;;;;;;1.65;0.80;;;;;;;22.73;37.45;100869.28;5068313;27;96746;-77
2023/04/14 07:18:30;;;;;;;1.77;1.00;;;;;;;22.73;37.32;100874.78;5063981;27;96827;-78
2023/04/14 07:20:58;;;;;;;1.17;0.80;;;;;;;22.74;37.26;100873.72;5074555;27;96965;-78
2023/04/14 07:23:25;;;;;;;1.33;0.70;;;;;;;22.74;37.66;100860.03;5063599;27;97634;-77
2023/04/14 07:25:53;;;;;;;1.85;0.88;;;;;;;22.75;37.71;100861.75;5055623;27;98548;-78
2023/04/14 07:28:21;;;;;;;1.38;0.60;;;;;;;22.75;37.50;100870.81;5048999;27;98707;-77
2023/04/14 07:30:49;;;;;;;1.58;0.70;;;;;;;22.76;37.18;100868.91;5062370;27;96676;-78
2023/04/14 07:33:21;;;;;;;1.45;0.70;;;;;;;22.76;37.25;100860.72;5057552;27;100273;-77
2023/04/14 07:35:51;;;;;;;1.38;0.90;;;;;;;22.76;37.66;100856.09;5062956;27;99092;-77
2023/04/14 07:38:28;;;;;;;1.58;0.70;;;;;;;22.76;37.31;100856.09;5066662;27;96816;-78
2023/04/14 07:40:55;;;;;;;2.03;0.70;;;;;;;22.77;37.43;100855.03;5041417;27;96816;-78
2023/04/14 07:43:22;;;;;;;0.77;0.50;;;;;;;22.78;37.67;100855.88;5057515;27;96873;-77
2023/04/14 07:45:48;;;;;;;1.85;0.90;;;;;;;22.78;37.42;100850.41;5070283;27;96713;-77
2023/04/14 07:48:18;;;;;;;1.23;0.70;;;;;;;22.77;37.80;100849.56;5067518;27;97046;-77
2023/04/14 07:50:47;;;;;;;1.23;0.70;;;;;;;22.78;37.47;100850.41;5062751;27;96918;-77
2023/04/14 07:53:13;;;;;;;1.17;0.70;;;;;;;22.78;37.72;100850.41;5060450;27;96846;-78
2023/04/14 07:55:40;;;;;;;1.98;0.77;;;;;;;22.78;37.36;100843.06;5065815;27;97463;-77
2023/04/14 07:58:06;;;;;;;1.00;0.70;;;;;;;22.78;37.69;100847.69;5057124;27;97289;-78
2023/04/14 08:00:33;;;;;;;1.85;0.90;;;;;;;22.79;37.58;100847.50;5065294;27;96972;-78
2023/04/14 08:02:59;;;;;;;2.22;0.80;;;;;;;22.79;37.53;100846.63;5062056;27;97151;-77
2023/04/14 08:05:26;;;;;;;1.13;0.65;;;;;;;22.79;37.69;100844.75;5061168;27;96778;-77
2023/04/14 08:07:53;;;;;;;2.35;1.17;;;;;;;22.79;37.81;100847.50;5064551;27;97027;-77
2023/04/14 08:10:20;;;;;;;2.70;0.73;;;;;;;22.80;37.63;100845.63;5060216;27;96875;-78
2023/04/14 08:12:46;;;;;;;1.98;0.60;;;;;;;22.80;37.60;100845.63;5059128;27;97701;-78
2023/04/14 08:15:13;;;;;;;1.45;0.80;;;;;;;22.80;37.51;100838.28;5059581;27;99085;-78
2023/04/14 08:17:39;;;;;;;1.45;0.75;;;;;;;22.80;37.50;100842.91;5066899;27;96773;-78
2023/04/14 08:20:07;;;;;;;1.77;0.70;;;;;;;22.80;37.46;100842.91;5063767;27;96499;-78
2023/04/14 08:22:34;;;;;;;1.00;0.70;;;;;;;22.80;37.38;100838.28;5063648;27;97608;-77
2023/04/14 08:25:00;;;;;;;0.90;0.50;;;;;;;22.80;37.70;100837.41;5059804;27;96850;-77
2023/04/14 08:27:27;;;;;;;1.45;0.80;;;;;;;22.79;37.72;100844.75;5060926;27;99089;-78
2023/04/14 08:29:53;;;;;;;1.73;0.80;;;;;;;22.80;37.62;100838.28;5061073;27;97133;-79
2023/04/14 08:32:20;;;;;;;1.92;1.17;;;;;;;22.80;37.42;100842.91;5062866;27;97145;-77
2023/04/14 08:34:47;;;;;;;1.73;1.00;;;;;;;22.80;37.38;100838.28;5058633;27;97021;-78
2023/04/14 08:37:33;;;;;;;1.80;0.80;;;;;;;22.79;37.47;100832.94;5058783;27;98397;-78
2023/04/14 08:40:00;;;;;;;1.90;0.75;;;;;;;22.79;37.33;100836.53;5059953;27;98469;-76
2023/04/14 08:42:27;;;;;;;2.10;0.60;;;;;;;22.79;37.64;100836.53;5048082;27;97696;-78
2023/04/14 08:44:54;;;;;;;1.08;0.50;;;;;;;22.80;37.53;100838.28;5061091;27;96886;-78
2023/04/14 08:47:21;;;;;;;4.43;0.80;;;;;;;22.79;37.62;100836.53;5049295;27;97705;-78
2023/04/14 08:49:55;;;;;;;1.95;0.60;;;;;;;22.81;37.62;100842.72;5062616;27;97426;-78
2023/04/14 08:52:25;;;;;;;1.35;0.60;;;;;;;22.80;37.42;100838.28;5058581;27;98119;-77
2023/04/14 08:54:55;;;;;;;1.05;0.70;;;;;;;22.81;37.37;100845.44;5059849;27;98404;-78
2023/04/14 08:57:25;;;;;;;2.05;0.60;;;;;;;22.81;37.45;100844.59;5059433;27;96943;-77
2023/04/14 08:59:56;;;;;;;1.45;0.60;;;;;;;22.81;37.29;100839.97;5062319;27;97215;-78
2023/04/14 09:02:24;;;;;;;1.20;0.80;;;;;;;22.81;37.44;100839.97;5057090;27;97677;-78
2023/04/14 09:04:51;;;;;;;1.63;0.73;;;;;;;22.82;37.42;100829.88;5062401;27;97949;-78
2023/04/14 09:07:18;;;;;;;2.10;0.60;;;;;;;22.81;37.51;100841.84;5055169;27;97405;-78
2023/04/14 09:09:45;;;;;;;1.70;0.82;;;;;;;22.81;37.32;100842.72;5059400;27;96878;-77
2023/04/14 09:12:14;;;;;;;1.88;0.63;;;;;;;22.81;37.50;100836.38;5062520;27;99120;-78
2023/04/14 09:14:45;;;;;;;2.15;0.80;;;;;;;22.82;37.63;100838.94;5055476;27;97137;-78
2023/04/14 09:17:11;;;;;;;2.00;1.13;;;;;;;22.83;37.43;100837.03;5066833;27;96901;-79
2023/04/14 09:19:38;;;;;;;2.22;0.90;;;;;;;22.83;37.18;100837.88;5061276;27;97355;-78
2023/04/14 09:22:26;;;;;;;1.67;0.80;;;;;;;22.82;37.27;100835.34;5065736;27;100930;-77
2023/04/14 09:24:53;;;;;;;1.45;0.90;;;;;;;22.82;37.33;100833.44;5064415;27;97988;-79
2023/04/14 09:27:19;;;;;;;1.65;0.90;;;;;;;22.82;37.26;100827.97;5066032;27;97146;-78
2023/04/14 09:29:47;;;;;;;3.08;0.73;;;;;;;22.83;37.26;100826.09;5060707;27;96800;-77
2023/04/14 09:32:14;;;;;;;1.23;0.80;;;;;;;22.83;37.02;100824.19;5056911;27;97825;-79
2023/04/14 09:34:52;;;;;;;2.08;1.08;;;;;;;22.84;37.02;100822.31;5057535;27;97417;-78
2023/04/14 09:37:23;;;;;;;1.45;0.90;;;;;;;22.82;36.90;100819.75;5064089;27;98331;-78
2023/04/14 09:39:51;;;;;;;1.50;0.88;;;;;;;22.83;36.96;100820.63;5061650;27;97009;-77
2023/04/14 09:42:18;;;;;;;2.00;0.70;;;;;;;22.83;36.72;100820.63;5060547;27;98099;-78
2023/04/14 09:44:57;;;;;;;2.58;0.70;;;;;;;22.83;37.00;100815.13;5056735;27;96932;-77
2023/04/14 09:47:25;;;;;;;1.73;0.80;;;;;;;22.82;36.76;100819.75;5064143;27;96602;-78
2023/04/14 09:50:04;;;;;;;2.92;1.00;;;;;;;22.83;37.09;100820.63;5058469;27;96598;-78
2023/04/14 09:52:43;;;;;;;2.28;1.10;;;;;;;22.81;37.00;100820.81;5057757;27;99474;-78
2023/04/14 09:55:15;;;;;;;2.13;0.70;;;;;;;22.81;36.71;100812.59;5055659;27;97669;-78
2023/04/14 09:57:48;;;;;;;2.30;1.00;;;;;;;22.83;36.82;100813.25;5057043;27;96652;-77
2023/04/14 10:00:14;;;;;;;1.42;0.75;;;;;;;22.82;36.55;100805.22;5056247;27;97360;-79
2023/04/14 10:02:56;;;;;;;1.60;0.80;;;;;;;22.82;36.84;100810.69;5054685;27;97079;-79
2023/04/14 10:05:28;;;;;;;2.03;0.80;;;;;;;22.82;36.67;100808.81;5068686;27;96774;-78
2023/04/14 10:08:03;;;;;;;2.85;0.80;;;;;;;22.82;36.86;100806.06;5060218;27;98027;-79
2023/04/14 10:10:30;;;;;;;3.05;0.88;;;;;;;22.82;36.88;100799.75;5046647;27;96736;-79
2023/04/14 10:12:58;;;;;;;1.50;0.80;;;;;;;22.83;36.54;100804.19;5066544;27;96843;-78
2023/04/14 10:15:26;;;;;;;1.85;0.85;;;;;;;22.82;36.48;100799.75;5060252;27;97312;-79
2023/04/14 10:17:52;;;;;;;1.67;0.70;;;;;;;22.84;36.72;100794.94;5064844;27;97267;-78
2023/04/14 10:20:19;;;;;;;1.27;0.75;;;;;;;22.83;36.65;100796.81;5054775;27;96924;-78
2023/04/14 10:22:46;;;;;;;3.33;0.90;;;;;;;22.84;36.78;100789.44;5059904;27;96931;-78
2023/04/14 10:25:14;;;;;;;1.25;0.70;;;;;;;22.85;36.67;100776.59;5056547;27;98978;-79
2023/04/14 10:27:41;;;;;;;2.75;1.52;;;;;;;22.84;36.39;100770.28;5058898;27;97093;-78
2023/04/14 10:30:08;;;;;;;2.20;0.70;;;;;;;22.85;36.53;100768.41;5059387;27;97088;-78
2023/04/14 10:32:39;;;;;;;2.30;0.90;;;;;;;22.86;36.69;100767.34;5067362;27;96832;-80
2023/04/14 10:35:09;;;;;;;1.67;0.70;;;;;;;22.86;36.56;100772.81;5067897;27;97888;-78
2023/04/14 10:37:36;;;;;;;2.42;0.90;;;;;;;22.86;36.33;100770.94;5080080;27;97710;-79
2023/04/14 10:40:05;;;;;;;1.38;0.70;;;;;;;22.86;36.29;100770.94;5063174;27;97284;-79
2023/04/14 10:42:52;;;;;;;2.90;0.82;;;;;;;22.87;36.35;100760.84;5067497;27;97191;-79
2023/04/14 10:45:19;;;;;;;1.30;0.50;;;;;;;22.85;36.51;100751.97;5061264;27;97923;-79
2023/04/14 10:47:46;;;;;;;2.40;0.90;;;;;;;22.86;36.27;100756.41;5073090;27;96933;-78
2023/04/14 10:50:16;;;;;;;2.08;0.85;;;;;;;22.87;36.41;100755.34;5059057;27;97619;-79
2023/04/14 10:52:54;;;;;;;2.22;0.98;;;;;;;22.88;36.32;100754.31;5082391;27;98024;-79
2023/04/14 10:55:25;;;;;;;2.13;0.77;;;;;;;22.88;36.33;100754.31;5062607;27;97174;-78
2023/04/14 10:58:01;;;;;;;1.63;0.70;;;;;;;22.87;36.16;100749.88;5066026;27;96797;-79
2023/04/14 11:00:30;;;;;;;1.00;0.57;;;;;;;22.87;36.22;100748.00;5062488;27;96691;-78
2023/04/14 11:03:13;;;;;;;2.38;0.85;;;;;;;22.88;36.14;100749.69;5073344;27;100237;-78
2023/04/14 11:05:47;;;;;;;3.17;0.90;;;;;;;22.88;36.20;100748.84;5049315;27;98066;-79
2023/04/14 11:08:23;;;;;;;1.58;1.08;;;;;;;22.89;35.97;100750.53;5062288;27;97020;-78
2023/04/14 11:11:00;;;;;;;2.83;0.90;;;;;;;22.89;36.13;100737.69;5064236;27;96802;-79
2023/04/14 11:13:27;;;;;;;1.83;0.73;;;;;;;22.90;36.31;100741.28;5066759;27;98175;-79
2023/04/14 11:16:02;;;;;;;1.38;0.80;;;;;;;22.90;36.08;100733.91;5072941;27;97035;-79
2023/04/14 11:18:29;;;;;;;;;;;;;;;22.86;36.19;100731.75;5072981;27;98040;-79
2023/04/14 11:21:06;;;;;;;1.77;0.70;;;;;;;22.87;36.32;100736.19;5059494;27;97044;-78
2023/04/14 11:23:34;;;;;;;3.63;0.95;;;;;;;22.88;36.26;100735.16;5073430;27;98043;-80
2023/04/14 11:26:04;;;;;;;3.00;0.80;;;;;;;22.90;36.07;100735.81;5071348;27;96819;-78
2023/04/14 11:28:32;;;;;;;1.58;0.88;;;;;;;22.90;35.90;100728.44;5070025;27;96840;-77
2023/04/14 11:31:00;;;;;;;1.52;0.73;;;;;;;22.91;36.21;100726.56;5069841;27;96646;-77
2023/04/14 11:33:32;;;;;;;1.83;0.73;;;;;;;22.91;35.85;100724.66;5066269;27;97231;-79